Time;durP1;ratioP1;P1;durP2;ratioP2;P2;SDS_P1;SDS_P2;PMS_P1;PMS_P2;Temp;Humidity;BMP_temperature;BMP_pressure;BME280_temperature;BME280_humidity;BME280_pressure;Samples;Min_cycle;Max_cycle;Signal;HPM_P1;HPM_P2
2021/06/26 00:02:05;;;;;;;20.45;18.23;;;;;;;;;;5076957;28;20120;-54
2021/06/26 00:04:30;;;;;;;17.75;15.75;;;;;;;;;;5089331;28;20323;-54
2021/06/26 00:06:55;;;;;;;16.75;15.15;;;;;;;;;;5086373;28;20069;-55
2021/06/26 00:09:20;;;;;;;18.48;16.58;;;;;;;;;;5093630;28;20099;-55
2021/06/26 00:11:46;;;;;;;20.48;17.38;;;;;;;;;;5078521;28;20024;-55
2021/06/26 00:14:11;;;;;;;19.67;17.60;;;;;;;;;;5093940;28;20030;-54
2021/06/26 00:16:36;;;;;;;23.75;19.02;;;;;;;;;;5092357;28;20020;-55
2021/06/26 00:19:02;;;;;;;21.67;18.80;;;;;;;;;;5093467;28;20069;-54
2021/06/26 00:21:27;;;;;;;21.50;19.27;;;;;;;;;;5088353;28;20020;-54
2021/06/26 00:23:52;;;;;;;24.20;19.75;;;;;;;;;;5092772;28;20080;-56
2021/06/26 00:26:18;;;;;;;23.58;20.05;;;;;;;;;;5088848;28;20028;-55
2021/06/26 00:28:43;;;;;;;27.35;20.60;;;;;;;;;;5073044;28;20031;-55
2021/06/26 00:31:08;;;;;;;24.42;18.90;;;;;;;;;;5084722;28;20012;-54
2021/06/26 00:33:33;;;;;;;23.65;19.67;;;;;;;;;;5073238;28;20471;-54
2021/06/26 00:35:58;;;;;;;22.02;19.10;;;;;;;;;;5084413;28;20024;-54
2021/06/26 00:38:24;;;;;;;19.77;17.55;;;;;;;;;;5087154;28;20032;-53
2021/06/26 00:40:49;;;;;;;21.73;18.30;;;;;;;;;;5069944;28;20021;-55
2021/06/26 00:43:15;;;;;;;20.00;18.00;;;;;;;;;;5075864;28;20012;-52
2021/06/26 00:45:40;;;;;;;19.08;16.73;;;;;;;;;;5093037;28;20491;-54
2021/06/26 00:48:06;;;;;;;19.30;17.27;;;;;;;;;;5092660;28;20128;-55
2021/06/26 00:50:31;;;;;;;18.77;16.60;;;;;;;;;;5082236;28;20095;-55
2021/06/26 00:52:57;;;;;;;18.88;16.80;;;;;;;;;;5092629;28;20468;-53
2021/06/26 00:55:22;;;;;;;18.23;15.75;;;;;;;;;;5078104;28;20554;-53
2021/06/26 00:57:57;;;;;;;20.52;16.92;;;;;;;;;;5089400;28;20506;-55
2021/06/26 01:00:22;;;;;;;17.60;15.75;;;;;;;;;;5088007;28;20115;-53
2021/06/26 01:02:48;;;;;;;18.35;16.42;;;;;;;;;;5081919;28;20123;-56
2021/06/26 01:05:13;;;;;;;18.08;16.17;;;;;;;;;;5082101;28;20024;-53
2021/06/26 01:07:39;;;;;;;18.85;16.90;;;;;;;;;;5073532;28;20025;-55
2021/06/26 01:10:05;;;;;;;19.60;17.00;;;;;;;;;;5087998;28;20401;-54
2021/06/26 01:12:30;;;;;;;17.95;15.98;;;;;;;;;;5088645;28;20028;-53
2021/06/26 01:14:55;;;;;;;17.50;15.35;;;;;;;;;;5092541;28;20384;-54
2021/06/26 01:17:21;;;;;;;16.40;14.70;;;;;;;;;;5072830;28;20021;-54
2021/06/26 01:19:46;;;;;;;17.48;15.60;;;;;;;;;;5087672;28;20034;-52
2021/06/26 01:22:15;;;;;;;19.10;17.13;;;;;;;;;;5089109;28;20110;-55
2021/06/26 01:24:40;;;;;;;19.30;17.30;;;;;;;;;;5090600;28;20360;-55
2021/06/26 01:27:05;;;;;;;18.25;16.42;;;;;;;;;;5089106;28;20019;-55
2021/06/26 01:29:31;;;;;;;17.35;15.60;;;;;;;;;;5091781;28;20428;-52
2021/06/26 01:31:56;;;;;;;17.23;15.55;;;;;;;;;;5077501;28;20048;-55
2021/06/26 01:34:22;;;;;;;21.27;16.33;;;;;;;;;;5083166;28;20518;-55
2021/06/26 01:36:47;;;;;;;18.42;16.63;;;;;;;;;;5072059;28;20028;-50
2021/06/26 01:39:12;;;;;;;16.52;14.93;;;;;;;;;;5078927;28;20112;-55
2021/06/26 01:41:37;;;;;;;16.38;14.77;;;;;;;;;;5079429;28;20020;-57
2021/06/26 01:44:03;;;;;;;16.08;14.38;;;;;;;;;;5091651;28;20023;-56
2021/06/26 01:46:28;;;;;;;15.73;14.05;;;;;;;;;;5092458;28;20089;-55
2021/06/26 01:49:04;;;;;;;15.55;13.98;;;;;;;;;;5082520;28;20111;-54
2021/06/26 01:51:33;;;;;;;20.90;16.00;;;;;;;;;;5068847;28;20089;-54
2021/06/26 01:53:59;;;;;;;21.33;17.45;;;;;;;;;;5073309;28;20543;-56
2021/06/26 01:56:24;;;;;;;25.83;18.45;;;;;;;;;;5072243;28;20107;-55
2021/06/26 01:58:49;;;;;;;18.85;16.60;;;;;;;;;;5084344;28;20352;-55
2021/06/26 02:01:14;;;;;;;17.58;15.60;;;;;;;;;;5076519;28;20043;-56
2021/06/26 02:03:39;;;;;;;15.52;13.93;;;;;;;;;;5087437;28;20020;-54
2021/06/26 02:06:05;;;;;;;18.15;15.07;;;;;;;;;;5078635;28;20016;-56
2021/06/26 02:08:32;;;;;;;20.92;17.02;;;;;;;;;;5091091;28;20059;-56
2021/06/26 02:10:57;;;;;;;24.73;18.95;;;;;;;;;;5069457;28;20032;-54
2021/06/26 02:13:22;;;;;;;23.55;19.05;;;;;;;;;;5080080;28;20020;-55
2021/06/26 02:15:47;;;;;;;20.40;17.45;;;;;;;;;;5091426;28;20034;-55
2021/06/26 02:18:12;;;;;;;24.75;19.65;;;;;;;;;;5083092;28;20036;-54
2021/06/26 02:20:38;;;;;;;20.60;17.70;;;;;;;;;;5088899;28;20023;-54
2021/06/26 02:23:03;;;;;;;22.67;18.10;;;;;;;;;;5094684;28;20024;-51
2021/06/26 02:25:28;;;;;;;20.45;17.25;;;;;;;;;;5095013;28;20012;-55
2021/06/26 02:27:55;;;;;;;25.38;18.92;;;;;;;;;;5094541;28;20046;-54
2021/06/26 02:30:20;;;;;;;20.15;17.65;;;;;;;;;;5092398;28;20024;-56
2021/06/26 02:32:45;;;;;;;17.88;15.85;;;;;;;;;;5094429;28;20068;-56
2021/06/26 02:35:11;;;;;;;26.00;18.77;;;;;;;;;;5094806;28;20382;-57
2021/06/26 02:37:38;;;;;;;16.05;14.45;;;;;;;;;;5081528;28;20388;-56
2021/06/26 02:40:03;;;;;;;16.55;14.65;;;;;;;;;;5076375;28;20036;-56
2021/06/26 02:42:29;;;;;;;18.67;14.88;;;;;;;;;;5074427;28;20021;-55
2021/06/26 02:44:54;;;;;;;18.13;15.25;;;;;;;;;;5075442;28;20141;-51
2021/06/26 02:47:21;;;;;;;20.17;16.80;;;;;;;;;;5082938;28;20016;-57
2021/06/26 02:49:46;;;;;;;20.35;16.58;;;;;;;;;;5089748;28;20390;-56
2021/06/26 02:52:12;;;;;;;24.08;17.45;;;;;;;;;;5085856;28;20028;-56
2021/06/26 02:54:37;;;;;;;21.40;17.05;;;;;;;;;;5094639;28;20483;-56
2021/06/26 02:57:02;;;;;;;17.20;15.35;;;;;;;;;;5085667;28;20498;-55
2021/06/26 02:59:27;;;;;;;16.67;14.40;;;;;;;;;;5074926;28;20111;-57
2021/06/26 03:01:53;;;;;;;16.23;13.77;;;;;;;;;;5083079;28;20040;-55
2021/06/26 03:04:19;;;;;;;15.38;13.50;;;;;;;;;;5091064;28;20013;-54
2021/06/26 03:06:44;;;;;;;14.02;12.50;;;;;;;;;;5077094;28;20020;-54
2021/06/26 03:09:10;;;;;;;15.73;13.57;;;;;;;;;;5086515;28;20046;-56
2021/06/26 03:11:35;;;;;;;16.92;14.98;;;;;;;;;;5075714;28;20036;-55
2021/06/26 03:14:00;;;;;;;21.35;15.95;;;;;;;;;;5075328;28;20024;-54
2021/06/26 03:16:25;;;;;;;22.40;17.80;;;;;;;;;;5076887;28;20015;-55
2021/06/26 03:18:50;;;;;;;18.45;15.88;;;;;;;;;;5094335;28;20487;-54
2021/06/26 03:21:16;;;;;;;17.85;14.93;;;;;;;;;;5091535;28;20514;-55
2021/06/26 03:23:41;;;;;;;18.23;15.20;;;;;;;;;;5094244;28;20012;-56
2021/06/26 03:26:07;;;;;;;16.67;13.77;;;;;;;;;;5093509;28;20077;-56
2021/06/26 03:28:33;;;;;;;13.73;12.38;;;;;;;;;;5094191;28;20024;-56
2021/06/26 03:30:58;;;;;;;13.13;11.82;;;;;;;;;;5091477;28;20020;-51
2021/06/26 03:33:23;;;;;;;13.15;11.70;;;;;;;;;;5094460;28;20035;-53
2021/06/26 03:35:48;;;;;;;17.95;14.20;;;;;;;;;;5081911;28;20036;-53
2021/06/26 03:38:14;;;;;;;17.48;13.43;;;;;;;;;;5093988;28;20028;-53
2021/06/26 03:40:39;;;;;;;16.45;13.07;;;;;;;;;;5077353;28;20431;-54
2021/06/26 03:43:04;;;;;;;13.43;12.13;;;;;;;;;;5079622;28;20035;-54
2021/06/26 03:45:29;;;;;;;13.02;11.75;;;;;;;;;;5094185;28;20022;-54
2021/06/26 03:47:55;;;;;;;12.70;11.50;;;;;;;;;;5089715;28;20036;-55
2021/06/26 03:50:20;;;;;;;18.08;13.75;;;;;;;;;;5073026;28;20031;-52
2021/06/26 03:52:45;;;;;;;19.40;15.30;;;;;;;;;;5080477;28;20484;-54
2021/06/26 03:55:11;;;;;;;18.52;14.40;;;;;;;;;;5080371;28;20028;-54
2021/06/26 03:57:36;;;;;;;17.13;14.73;;;;;;;;;;5093637;28;20031;-51
2021/06/26 04:00:02;;;;;;;19.50;14.98;;;;;;;;;;5091214;28;20028;-52
2021/06/26 04:02:27;;;;;;;19.17;14.88;;;;;;;;;;5079822;28;20131;-53
2021/06/26 04:04:52;;;;;;;21.98;16.90;;;;;;;;;;5091838;28;20047;-54
2021/06/26 04:07:18;;;;;;;21.98;17.83;;;;;;;;;;5093727;28;20077;-53
2021/06/26 04:09:43;;;;;;;22.20;16.88;;;;;;;;;;5093192;28;20047;-56
2021/06/26 04:12:08;;;;;;;25.63;18.42;;;;;;;;;;5079050;28;20052;-54
2021/06/26 04:14:33;;;;;;;33.13;20.65;;;;;;;;;;5089332;28;20027;-55
2021/06/26 04:16:59;;;;;;;24.17;17.50;;;;;;;;;;5073547;28;20016;-54
2021/06/26 04:19:24;;;;;;;26.30;18.15;;;;;;;;;;5087407;28;20024;-53
2021/06/26 04:21:49;;;;;;;23.48;19.45;;;;;;;;;;5082110;28;20028;-54
2021/06/26 04:24:14;;;;;;;23.85;18.90;;;;;;;;;;5088021;28;20098;-55
2021/06/26 04:26:40;;;;;;;19.98;17.10;;;;;;;;;;5088361;28;20044;-56
2021/06/26 04:29:05;;;;;;;22.52;17.17;;;;;;;;;;5092946;28;20020;-56
2021/06/26 04:31:30;;;;;;;19.83;17.60;;;;;;;;;;5087719;28;20055;-55
2021/06/26 04:33:55;;;;;;;21.35;16.50;;;;;;;;;;5092890;28;20032;-54
2021/06/26 04:36:21;;;;;;;19.77;17.15;;;;;;;;;;5092892;28;20099;-56
2021/06/26 04:38:46;;;;;;;21.60;16.92;;;;;;;;;;5092440;28;20024;-54
2021/06/26 04:41:11;;;;;;;19.58;16.60;;;;;;;;;;5075918;28;20031;-56
2021/06/26 04:43:37;;;;;;;20.60;16.83;;;;;;;;;;5081895;28;20019;-55
2021/06/26 04:46:02;;;;;;;21.60;16.83;;;;;;;;;;5091547;28;20474;-53
2021/06/26 04:48:29;;;;;;;23.90;18.95;;;;;;;;;;5086613;28;20013;-55
2021/06/26 04:50:54;;;;;;;20.08;17.95;;;;;;;;;;5080744;28;20093;-54
2021/06/26 04:53:20;;;;;;;21.83;19.10;;;;;;;;;;5087108;28;20460;-55
2021/06/26 04:55:51;;;;;;;22.40;19.10;;;;;;;;;;5093068;28;20032;-54
2021/06/26 04:58:20;;;;;;;20.45;17.73;;;;;;;;;;5089621;28;20012;-54
2021/06/26 05:00:49;;;;;;;19.85;17.02;;;;;;;;;;5069798;28;20024;-55
2021/06/26 05:03:14;;;;;;;24.67;19.65;;;;;;;;;;5072687;28;20044;-54
2021/06/26 05:05:40;;;;;;;19.77;17.65;;;;;;;;;;5072496;28;20020;-55
2021/06/26 05:08:05;;;;;;;22.58;19.02;;;;;;;;;;5076925;28;20522;-55
2021/06/26 05:10:30;;;;;;;20.30;18.17;;;;;;;;;;5089331;28;20016;-55
2021/06/26 05:12:55;;;;;;;22.33;18.45;;;;;;;;;;5081312;28;20025;-56
2021/06/26 05:15:20;;;;;;;20.02;17.92;;;;;;;;;;5086081;28;20024;-55
2021/06/26 05:17:46;;;;;;;20.02;17.92;;;;;;;;;;5090892;28;20070;-55
2021/06/26 05:20:14;;;;;;;20.83;17.83;;;;;;;;;;5090994;28;20054;-55
2021/06/26 05:22:40;;;;;;;18.70;16.80;;;;;;;;;;5090281;28;20095;-54
2021/06/26 05:25:05;;;;;;;17.33;15.52;;;;;;;;;;5090414;28;20102;-55
2021/06/26 05:27:30;;;;;;;22.65;19.05;;;;;;;;;;5071989;28;20048;-55
2021/06/26 05:29:56;;;;;;;20.80;17.42;;;;;;;;;;5091694;28;20036;-55
2021/06/26 05:32:21;;;;;;;21.20;18.90;;;;;;;;;;5089424;28;20023;-55
2021/06/26 05:34:46;;;;;;;21.38;18.13;;;;;;;;;;5084957;28;20028;-55
2021/06/26 05:37:11;;;;;;;16.70;15.10;;;;;;;;;;5092387;28;20379;-54
2021/06/26 05:39:36;;;;;;;18.13;15.77;;;;;;;;;;5091993;28;20028;-54
2021/06/26 05:42:02;;;;;;;17.30;15.30;;;;;;;;;;5089137;28;20032;-53
2021/06/26 05:44:27;;;;;;;17.15;15.35;;;;;;;;;;5085490;28;20024;-53
2021/06/26 05:46:52;;;;;;;19.10;17.15;;;;;;;;;;5089408;28;20025;-56
2021/06/26 05:49:17;;;;;;;18.50;16.70;;;;;;;;;;5074358;28;20013;-53
2021/06/26 05:51:42;;;;;;;21.20;18.48;;;;;;;;;;5078308;28;20027;-55
2021/06/26 05:54:08;;;;;;;20.08;17.98;;;;;;;;;;5086325;28;20021;-55
2021/06/26 05:56:33;;;;;;;18.10;16.30;;;;;;;;;;5088620;28;20024;-52
2021/06/26 05:58:58;;;;;;;19.45;17.52;;;;;;;;;;5095888;28;20028;-55
2021/06/26 06:01:24;;;;;;;19.88;16.77;;;;;;;;;;5085950;28;20036;-55
2021/06/26 06:03:49;;;;;;;17.02;15.43;;;;;;;;;;5095472;28;20540;-56
2021/06/26 06:06:14;;;;;;;17.70;15.82;;;;;;;;;;5095679;28;20498;-57
2021/06/26 06:08:40;;;;;;;16.95;15.25;;;;;;;;;;5093517;28;20073;-56
2021/06/26 06:11:05;;;;;;;17.20;15.50;;;;;;;;;;5083571;28;20138;-53
2021/06/26 06:13:32;;;;;;;16.67;14.90;;;;;;;;;;5075868;28;20029;-55
2021/06/26 06:15:57;;;;;;;15.30;13.77;;;;;;;;;;5075867;28;20447;-56
2021/06/26 06:18:22;;;;;;;15.55;14.13;;;;;;;;;;5092037;28;20099;-55
2021/06/26 06:20:48;;;;;;;15.27;13.80;;;;;;;;;;5087912;28;20017;-56
2021/06/26 06:23:13;;;;;;;14.30;12.90;;;;;;;;;;5088589;28;20455;-56
2021/06/26 06:25:39;;;;;;;13.82;12.50;;;;;;;;;;5095975;28;20099;-57
2021/06/26 06:28:04;;;;;;;12.63;11.43;;;;;;;;;;5092192;28;20022;-57
2021/06/26 06:30:31;;;;;;;13.52;12.23;;;;;;;;;;5092423;28;20599;-55
2021/06/26 06:32:57;;;;;;;13.32;12.05;;;;;;;;;;5081893;28;20116;-54
2021/06/26 06:35:24;;;;;;;12.23;11.18;;;;;;;;;;5074946;28;20024;-52
2021/06/26 06:37:49;;;;;;;12.50;11.50;;;;;;;;;;5081237;28;20020;-55
2021/06/26 06:40:15;;;;;;;12.75;11.50;;;;;;;;;;5082262;28;20070;-56
2021/06/26 06:42:41;;;;;;;14.07;12.57;;;;;;;;;;5077678;28;20031;-55
2021/06/26 06:45:07;;;;;;;11.88;10.73;;;;;;;;;;5075184;28;20032;-54
2021/06/26 06:47:32;;;;;;;12.55;11.45;;;;;;;;;;5083731;28;20153;-56
2021/06/26 06:49:57;;;;;;;12.75;11.55;;;;;;;;;;5075070;28;20395;-55
2021/06/26 06:52:23;;;;;;;12.45;11.30;;;;;;;;;;5081421;28;20031;-52
2021/06/26 06:54:48;;;;;;;11.93;10.93;;;;;;;;;;5087918;28;20027;-56
2021/06/26 06:57:13;;;;;;;10.85;9.80;;;;;;;;;;5088387;28;20035;-55
2021/06/26 06:59:39;;;;;;;11.05;10.05;;;;;;;;;;5084838;28;20086;-55
2021/06/26 07:02:04;;;;;;;12.93;11.65;;;;;;;;;;5078531;28;20040;-56
2021/06/26 07:04:29;;;;;;;12.20;11.20;;;;;;;;;;5075836;28;20527;-53
2021/06/26 07:06:54;;;;;;;11.38;10.38;;;;;;;;;;5080493;28;20407;-55
2021/06/26 07:09:20;;;;;;;11.40;10.32;;;;;;;;;;5086673;28;20028;-54
2021/06/26 07:11:45;;;;;;;12.45;11.32;;;;;;;;;;5084867;28;20030;-56
2021/06/26 07:14:10;;;;;;;12.00;10.98;;;;;;;;;;5093165;28;20470;-55
2021/06/26 07:16:35;;;;;;;12.93;11.73;;;;;;;;;;5092062;28;20485;-55
2021/06/26 07:19:01;;;;;;;13.48;12.18;;;;;;;;;;5084146;28;20290;-55
2021/06/26 07:21:26;;;;;;;13.18;11.88;;;;;;;;;;5070418;28;20046;-56
2021/06/26 07:23:51;;;;;;;12.23;11.05;;;;;;;;;;5087020;28;20095;-55
2021/06/26 07:26:16;;;;;;;12.48;11.27;;;;;;;;;;5087596;28;21376;-57
2021/06/26 07:28:42;;;;;;;11.07;10.07;;;;;;;;;;5092229;28;20028;-54
2021/06/26 07:31:07;;;;;;;11.82;10.73;;;;;;;;;;5072146;28;20048;-54
2021/06/26 07:33:32;;;;;;;10.57;9.57;;;;;;;;;;5082287;28;20032;-53
2021/06/26 07:35:57;;;;;;;11.15;10.10;;;;;;;;;;5079056;28;20032;-57
2021/06/26 07:38:23;;;;;;;9.43;8.55;;;;;;;;;;5091975;28;20074;-55
2021/06/26 07:40:49;;;;;;;10.15;9.18;;;;;;;;;;5084740;28;20016;-55
2021/06/26 07:43:14;;;;;;;8.60;7.90;;;;;;;;;;5089435;28;20024;-54
2021/06/26 07:45:39;;;;;;;9.25;8.43;;;;;;;;;;5081917;28;20016;-53
2021/06/26 07:48:05;;;;;;;8.20;7.45;;;;;;;;;;5083529;28;20024;-53
2021/06/26 07:50:30;;;;;;;9.38;8.57;;;;;;;;;;5075156;28;20028;-54
2021/06/26 07:52:55;;;;;;;8.38;7.68;;;;;;;;;;5092717;28;20020;-54
2021/06/26 07:55:20;;;;;;;9.18;8.27;;;;;;;;;;5090653;28;20028;-55
2021/06/26 07:57:46;;;;;;;9.68;8.88;;;;;;;;;;5086413;28;20028;-56
2021/06/26 08:00:11;;;;;;;8.32;7.63;;;;;;;;;;5077313;28;20529;-53
2021/06/26 08:02:36;;;;;;;8.95;7.68;;;;;;;;;;5032187;28;1098852;-53
2021/06/26 08:05:02;;;;;;;9.23;8.52;;;;;;;;;;5085548;28;20031;-53
2021/06/26 08:07:27;;;;;;;8.30;7.65;;;;;;;;;;5087575;28;20468;-55
2021/06/26 08:09:52;;;;;;;7.78;7.05;;;;;;;;;;5092769;28;20395;-54
2021/06/26 08:12:18;;;;;;;8.57;7.63;;;;;;;;;;5086132;28;20051;-55
2021/06/26 08:14:43;;;;;;;8.52;7.82;;;;;;;;;;5082058;28;20028;-57
2021/06/26 08:17:12;;;;;;;7.57;6.97;;;;;;;;;;5086572;28;20379;-56
2021/06/26 08:19:38;;;;;;;7.45;6.88;;;;;;;;;;5071964;28;20374;-56
2021/06/26 08:22:04;;;;;;;8.13;7.43;;;;;;;;;;5070473;28;20016;-55
2021/06/26 08:24:30;;;;;;;7.97;7.38;;;;;;;;;;5074851;28;20183;-55
2021/06/26 08:26:55;;;;;;;7.40;6.80;;;;;;;;;;5085810;28;20020;-55
2021/06/26 08:29:20;;;;;;;6.30;5.70;;;;;;;;;;5072790;28;20024;-55
2021/06/26 08:31:45;;;;;;;6.70;6.10;;;;;;;;;;5070100;28;20055;-56
2021/06/26 08:34:10;;;;;;;6.15;5.60;;;;;;;;;;5072410;28;20486;-53
2021/06/26 08:36:36;;;;;;;5.47;5.07;;;;;;;;;;5074495;28;20107;-52
2021/06/26 08:39:01;;;;;;;6.80;6.23;;;;;;;;;;5072758;28;20024;-56
2021/06/26 08:41:27;;;;;;;6.82;6.22;;;;;;;;;;5086850;28;20273;-54
2021/06/26 08:43:53;;;;;;;7.13;6.43;;;;;;;;;;5090084;28;20024;-55
2021/06/26 08:46:18;;;;;;;6.75;6.10;;;;;;;;;;5087356;28;20020;-56
2021/06/26 08:48:44;;;;;;;6.50;5.90;;;;;;;;;;5082693;28;20090;-56
2021/06/26 08:51:09;;;;;;;6.20;5.57;;;;;;;;;;5090964;28;20020;-58
2021/06/26 08:53:34;;;;;;;4.63;4.22;;;;;;;;;;5091206;28;20033;-55
2021/06/26 08:56:00;;;;;;;3.70;3.40;;;;;;;;;;5075622;28;20060;-56
2021/06/26 08:58:25;;;;;;;3.55;3.25;;;;;;;;;;5071859;28;20530;-55
2021/06/26 09:00:52;;;;;;;4.10;3.80;;;;;;;;;;5084402;28;20024;-54
2021/06/26 09:03:18;;;;;;;3.90;3.65;;;;;;;;;;5083099;28;20242;-56
2021/06/26 09:05:44;;;;;;;4.35;4.05;;;;;;;;;;5086876;28;20077;-56
2021/06/26 09:08:11;;;;;;;4.40;4.00;;;;;;;;;;5092384;28;20023;-56
2021/06/26 09:10:36;;;;;;;3.67;3.38;;;;;;;;;;5078901;28;20604;-56
2021/06/26 09:13:16;;;;;;;2.08;1.98;;;;;;;;;;5081908;28;20090;-55
2021/06/26 09:15:42;;;;;;;2.30;1.73;;;;;;;;;;5076906;28;20027;-54
2021/06/26 09:18:12;;;;;;;2.13;1.85;;;;;;;;;;5086654;28;20024;-55
2021/06/26 09:20:40;;;;;;;2.55;2.13;;;;;;;;;;5076781;28;20029;-55
2021/06/26 09:23:15;;;;;;;3.10;2.13;;;;;;;;;;5090783;28;20024;-55
2021/06/26 09:25:40;;;;;;;2.40;2.30;;;;;;;;;;5092480;28;20051;-55
2021/06/26 09:28:09;;;;;;;2.58;2.38;;;;;;;;;;5080995;28;20048;-55
2021/06/26 09:30:40;;;;;;;3.22;3.03;;;;;;;;;;5086453;28;20124;-56
2021/06/26 09:33:21;;;;;;;2.70;2.50;;;;;;;;;;5087582;28;20020;-52
2021/06/26 09:35:58;;;;;;;3.95;3.30;;;;;;;;;;5072033;28;20422;-56
2021/06/26 09:38:23;;;;;;;3.25;2.95;;;;;;;;;;5085965;28;20020;-56
2021/06/26 09:40:48;;;;;;;2.60;2.40;;;;;;;;;;5089056;28;20478;-56
2021/06/26 09:43:23;;;;;;;3.17;2.90;;;;;;;;;;5075883;28;20031;-57
2021/06/26 09:45:48;;;;;;;4.72;3.17;;;;;;;;;;5088599;28;20475;-55
2021/06/26 09:48:14;;;;;;;3.43;3.13;;;;;;;;;;5083153;28;20024;-55
2021/06/26 09:50:41;;;;;;;3.70;3.40;;;;;;;;;;5085009;28;20286;-53
2021/06/26 09:53:07;;;;;;;2.90;2.67;;;;;;;;;;5090952;28;20031;-55
2021/06/26 09:55:32;;;;;;;3.35;3.13;;;;;;;;;;5073542;28;20052;-55
2021/06/26 09:57:59;;;;;;;3.50;3.20;;;;;;;;;;5086558;28;20020;-56
2021/06/26 10:00:25;;;;;;;3.22;2.95;;;;;;;;;;5087208;28;20288;-56
2021/06/26 10:02:50;;;;;;;3.00;2.80;;;;;;;;;;5070213;28;20052;-55
2021/06/26 10:05:16;;;;;;;3.33;3.13;;;;;;;;;;5086598;28;20416;-55
2021/06/26 10:07:42;;;;;;;3.42;3.22;;;;;;;;;;5077547;28;20021;-57
2021/06/26 10:10:09;;;;;;;3.10;2.90;;;;;;;;;;5084770;28;20024;-56
2021/06/26 10:12:35;;;;;;;3.55;3.35;;;;;;;;;;5070473;28;20164;-56
2021/06/26 10:15:01;;;;;;;4.13;3.78;;;;;;;;;;5078996;28;20020;-56
2021/06/26 10:17:26;;;;;;;4.05;3.63;;;;;;;;;;5072085;28;20480;-54
2021/06/26 10:19:51;;;;;;;5.03;4.63;;;;;;;;;;5072225;28;20555;-56
2021/06/26 10:22:17;;;;;;;5.32;4.93;;;;;;;;;;5071638;28;20050;-53
2021/06/26 10:24:42;;;;;;;4.38;4.07;;;;;;;;;;5081648;28;20028;-56
2021/06/26 10:27:21;;;;;;;4.43;4.05;;;;;;;;;;5078856;28;20024;-54
2021/06/26 10:29:46;;;;;;;3.92;3.60;;;;;;;;;;5082419;28;20025;-56
2021/06/26 10:32:13;;;;;;;3.95;3.65;;;;;;;;;;5072045;28;20035;-56
2021/06/26 10:34:45;;;;;;;3.67;3.47;;;;;;;;;;5075786;28;20098;-54
2021/06/26 10:37:29;;;;;;;3.95;3.60;;;;;;;;;;5086753;28;20095;-52
2021/06/26 10:40:04;;;;;;;3.67;3.35;;;;;;;;;;5085047;28;20102;-53
2021/06/26 10:42:33;;;;;;;3.83;3.60;;;;;;;;;;5081778;28;20020;-55
2021/06/26 10:44:59;;;;;;;4.03;3.72;;;;;;;;;;5090657;28;20349;-55
2021/06/26 10:47:37;;;;;;;3.78;3.55;;;;;;;;;;5090141;28;20016;-55
2021/06/26 10:50:12;;;;;;;3.88;3.67;;;;;;;;;;5087522;28;20050;-57
2021/06/26 10:52:46;;;;;;;4.25;3.95;;;;;;;;;;5092461;28;20097;-55
2021/06/26 10:55:12;;;;;;;4.68;4.28;;;;;;;;;;5085015;28;20383;-54
2021/06/26 10:57:44;;;;;;;4.10;3.78;;;;;;;;;;5093682;28;20471;-53
2021/06/26 11:00:10;;;;;;;4.22;3.55;;;;;;;;;;5092933;28;20390;-55
2021/06/26 11:02:39;;;;;;;3.90;3.70;;;;;;;;;;5079032;28;20488;-55
2021/06/26 11:05:05;;;;;;;3.80;3.50;;;;;;;;;;5092215;28;20050;-57
2021/06/26 11:07:34;;;;;;;3.95;3.65;;;;;;;;;;5087804;28;20028;-56
2021/06/26 11:10:06;;;;;;;3.80;3.50;;;;;;;;;;5077974;28;20020;-55
2021/06/26 11:12:36;;;;;;;2.90;2.80;;;;;;;;;;5085452;28;20029;-57
2021/06/26 11:15:01;;;;;;;2.90;2.80;;;;;;;;;;5088612;28;20035;-57
2021/06/26 11:17:40;;;;;;;3.67;3.20;;;;;;;;;;5085877;28;20024;-56
2021/06/26 11:20:15;;;;;;;3.30;3.00;;;;;;;;;;5077035;28;20035;-54
2021/06/26 11:22:44;;;;;;;3.47;3.28;;;;;;;;;;5082667;28;20023;-55
2021/06/26 11:25:10;;;;;;;3.67;3.47;;;;;;;;;;5087333;28;20078;-55
2021/06/26 11:27:35;;;;;;;3.17;2.88;;;;;;;;;;5092881;28;20417;-55
2021/06/26 11:30:02;;;;;;;2.87;2.67;;;;;;;;;;5083593;28;20028;-55
2021/06/26 11:32:28;;;;;;;4.75;3.15;;;;;;;;;;5084634;28;20331;-53
2021/06/26 11:34:57;;;;;;;2.55;2.20;;;;;;;;;;5088271;28;20028;-54
2021/06/26 11:37:30;;;;;;;2.60;2.40;;;;;;;;;;5089175;28;20499;-57
2021/06/26 11:39:58;;;;;;;1.98;1.88;;;;;;;;;;5090212;28;20032;-55
2021/06/26 11:42:23;;;;;;;2.40;2.25;;;;;;;;;;5088986;28;20032;-54
2021/06/26 11:44:49;;;;;;;2.33;1.95;;;;;;;;;;5088060;28;20023;-56
2021/06/26 11:47:15;;;;;;;2.70;2.20;;;;;;;;;;5094004;28;20464;-54
2021/06/26 11:49:42;;;;;;;3.20;2.90;;;;;;;;;;5084486;28;20020;-54
2021/06/26 11:52:08;;;;;;;3.70;3.50;;;;;;;;;;5089987;28;20027;-56
2021/06/26 11:54:33;;;;;;;5.05;4.65;;;;;;;;;;5083833;28;20095;-56
2021/06/26 11:56:59;;;;;;;4.30;3.92;;;;;;;;;;5093661;28;20024;-54
2021/06/26 11:59:29;;;;;;;4.70;4.35;;;;;;;;;;5082235;28;20096;-54
2021/06/26 12:01:54;;;;;;;4.22;3.55;;;;;;;;;;5090352;28;20040;-53
2021/06/26 12:04:28;;;;;;;4.23;3.83;;;;;;;;;;5084067;28;20016;-56
2021/06/26 12:06:53;;;;;;;3.87;3.57;;;;;;;;;;5084373;28;20024;-56
2021/06/26 12:09:20;;;;;;;3.03;2.80;;;;;;;;;;5091314;28;20663;-54
2021/06/26 12:11:45;;;;;;;3.67;2.90;;;;;;;;;;5074954;28;20426;-54
2021/06/26 12:14:10;;;;;;;3.07;2.73;;;;;;;;;;5086031;28;20070;-56
2021/06/26 12:16:37;;;;;;;3.50;3.20;;;;;;;;;;5081755;28;20614;-56
2021/06/26 12:19:10;;;;;;;4.22;3.97;;;;;;;;;;5075260;28;20487;-56
2021/06/26 12:21:38;;;;;;;4.40;4.00;;;;;;;;;;5090501;28;20047;-56
2021/06/26 12:24:03;;;;;;;5.20;4.80;;;;;;;;;;5087924;28;20124;-54
2021/06/26 12:26:29;;;;;;;4.72;4.38;;;;;;;;;;5075614;28;20110;-55
2021/06/26 12:28:54;;;;;;;4.82;4.40;;;;;;;;;;5092748;28;20490;-53
2021/06/26 12:31:20;;;;;;;5.07;4.78;;;;;;;;;;5088947;28;20382;-56
2021/06/26 12:33:47;;;;;;;5.15;4.75;;;;;;;;;;5089924;28;20082;-55
2021/06/26 12:36:19;;;;;;;6.25;5.65;;;;;;;;;;5093008;28;20016;-55
2021/06/26 12:38:45;;;;;;;4.88;4.32;;;;;;;;;;5077776;28;20074;-55
2021/06/26 12:41:17;;;;;;;4.55;4.15;;;;;;;;;;5070122;28;20403;-54
2021/06/26 12:43:43;;;;;;;5.07;4.68;;;;;;;;;;5088406;28;20519;-57
2021/06/26 12:46:08;;;;;;;3.65;3.45;;;;;;;;;;5084662;28;20031;-54
2021/06/26 12:48:37;;;;;;;3.83;3.57;;;;;;;;;;5087306;28;20017;-54
2021/06/26 12:51:15;;;;;;;3.42;3.22;;;;;;;;;;5069769;28;20263;-54
2021/06/26 12:53:42;;;;;;;2.67;2.47;;;;;;;;;;5080299;28;20036;-54
2021/06/26 12:56:15;;;;;;;3.33;3.03;;;;;;;;;;5085728;28;20047;-55
2021/06/26 12:58:54;;;;;;;3.40;3.10;;;;;;;;;;5072517;28;20379;-54
2021/06/26 13:01:19;;;;;;;3.67;3.38;;;;;;;;;;5086097;28;20122;-55
2021/06/26 13:03:54;;;;;;;4.35;3.60;;;;;;;;;;5092156;28;20059;-54
2021/06/26 13:06:20;;;;;;;3.10;2.90;;;;;;;;;;5090860;28;20483;-57
2021/06/26 13:08:52;;;;;;;3.25;2.95;;;;;;;;;;5090398;28;20028;-57
2021/06/26 13:11:31;;;;;;;3.65;3.45;;;;;;;;;;5084680;28;20019;-55
2021/06/26 13:13:56;;;;;;;3.08;2.88;;;;;;;;;;5092988;28;20102;-55
2021/06/26 13:16:21;;;;;;;3.40;3.20;;;;;;;;;;5092027;28;20048;-55
2021/06/26 13:18:46;;;;;;;3.87;3.50;;;;;;;;;;5080785;28;20020;-53
2021/06/26 13:21:12;;;;;;;3.67;3.37;;;;;;;;;;5084631;28;20062;-55
2021/06/26 13:23:37;;;;;;;3.05;2.95;;;;;;;;;;5092593;28;20016;-55
2021/06/26 13:26:03;;;;;;;3.15;2.95;;;;;;;;;;5078380;28;20025;-56
2021/06/26 13:28:28;;;;;;;3.30;3.10;;;;;;;;;;5087838;28;20475;-55
2021/06/26 13:30:53;;;;;;;3.10;2.90;;;;;;;;;;5089242;28;20103;-54
2021/06/26 13:33:18;;;;;;;3.10;2.90;;;;;;;;;;5085096;28;20043;-56
2021/06/26 13:35:43;;;;;;;3.43;3.13;;;;;;;;;;5071840;28;20278;-56
2021/06/26 13:38:09;;;;;;;3.17;2.97;;;;;;;;;;5076802;28;20349;-54
2021/06/26 13:40:34;;;;;;;3.10;2.90;;;;;;;;;;5079328;28;20507;-54
2021/06/26 13:43:00;;;;;;;3.30;3.00;;;;;;;;;;5082469;28;20557;-54
2021/06/26 13:45:25;;;;;;;4.13;3.10;;;;;;;;;;5080099;28;20069;-54
2021/06/26 13:47:50;;;;;;;3.50;3.30;;;;;;;;;;5087157;28;20484;-54
2021/06/26 13:50:15;;;;;;;4.27;4.00;;;;;;;;;;5075273;28;20031;-54
2021/06/26 13:52:41;;;;;;;4.07;3.50;;;;;;;;;;5087224;28;20027;-54
2021/06/26 13:55:06;;;;;;;3.83;3.63;;;;;;;;;;5082799;28;20121;-55
2021/06/26 13:57:31;;;;;;;4.18;3.88;;;;;;;;;;5085713;28;20024;-56
2021/06/26 13:59:57;;;;;;;4.73;4.43;;;;;;;;;;5076784;28;20035;-54
2021/06/26 14:02:22;;;;;;;3.67;3.47;;;;;;;;;;5076075;28;20068;-53
2021/06/26 14:04:47;;;;;;;3.78;3.58;;;;;;;;;;5071630;28;20056;-54
2021/06/26 14:07:13;;;;;;;3.80;3.50;;;;;;;;;;5075891;28;20097;-54
2021/06/26 14:09:38;;;;;;;4.07;3.67;;;;;;;;;;5082909;28;20266;-55
2021/06/26 14:12:03;;;;;;;3.50;3.20;;;;;;;;;;5086762;28;20379;-56
2021/06/26 14:14:29;;;;;;;3.45;3.25;;;;;;;;;;5085602;28;20075;-55
2021/06/26 14:16:55;;;;;;;3.13;2.90;;;;;;;;;;5081804;28;20059;-55
2021/06/26 14:19:20;;;;;;;2.88;2.75;;;;;;;;;;5092629;28;20064;-56
2021/06/26 14:21:46;;;;;;;3.43;3.23;;;;;;;;;;5091224;28;20024;-52
2021/06/26 14:24:11;;;;;;;3.37;3.17;;;;;;;;;;5092852;28;20257;-54